sensor_id;sensor_type;location;lat;lon;timestamp;pressure;altitude;pressure_sealevel;temperature;humidity
45403;BME280;47427;51.976;5.326;2022-11-23T00:02:35;99466.00;;;8.44;100.00
45403;BME280;47427;51.976;5.326;2022-11-23T00:05:57;99471.31;;;8.52;100.00
45403;BME280;47427;51.976;5.326;2022-11-23T00:09:47;99465.13;;;8.44;100.00
45403;BME280;47427;51.976;5.326;2022-11-23T00:13:08;99466.03;;;8.46;100.00
45403;BME280;47427;51.976;5.326;2022-11-23T00:16:30;99461.63;;;8.43;100.00
45403;BME280;47427;51.976;5.326;2022-11-23T00:19:51;99468.56;;;8.41;100.00
45403;BME280;47427;51.976;5.326;2022-11-23T00:23:13;99471.91;;;8.31;100.00
45403;BME280;47427;51.976;5.326;2022-11-23T00:26:34;99467.50;;;8.29;100.00
45403;BME280;47427;51.976;5.326;2022-11-23T00:29:56;99475.34;;;8.30;100.00
45403;BME280;47427;51.976;5.326;2022-11-23T00:33:17;99478.03;;;8.33;100.00
45403;BME280;47427;51.976;5.326;2022-11-23T00:36:39;99485.00;;;8.34;100.00
45403;BME280;47427;51.976;5.326;2022-11-23T00:40:01;99476.34;;;8.38;100.00
45403;BME280;47427;51.976;5.326;2022-11-23T00:43:22;99482.34;;;8.33;100.00
45403;BME280;47427;51.976;5.326;2022-11-23T00:46:44;99476.16;;;8.23;100.00
45403;BME280;47427;51.976;5.326;2022-11-23T00:50:05;99492.75;;;8.30;100.00
45403;BME280;47427;51.976;5.326;2022-11-23T00:53:27;99476.25;;;8.32;100.00
45403;BME280;47427;51.976;5.326;2022-11-23T00:56:49;99480.50;;;8.24;100.00
45403;BME280;47427;51.976;5.326;2022-11-23T01:00:11;99501.19;;;8.09;100.00
45403;BME280;47427;51.976;5.326;2022-11-23T01:03:37;99496.94;;;8.15;100.00
45403;BME280;47427;51.976;5.326;2022-11-23T01:06:59;99500.28;;;8.07;100.00
45403;BME280;47427;51.976;5.326;2022-11-23T01:10:20;99505.59;;;8.11;100.00
45403;BME280;47427;51.976;5.326;2022-11-23T01:13:42;99521.91;;;7.96;100.00
45403;BME280;47427;51.976;5.326;2022-11-23T01:17:05;99523.53;;;7.90;100.00
45403;BME280;47427;51.976;5.326;2022-11-23T01:20:29;99511.22;;;7.81;100.00
45403;BME280;47427;51.976;5.326;2022-11-23T01:23:51;99513.84;;;7.81;100.00
45403;BME280;47427;51.976;5.326;2022-11-23T01:27:13;99517.91;;;7.64;100.00
45403;BME280;47427;51.976;5.326;2022-11-23T01:30:34;99520.34;;;7.54;100.00
45403;BME280;47427;51.976;5.326;2022-11-23T01:33:59;99525.25;;;7.36;100.00
45403;BME280;47427;51.976;5.326;2022-11-23T01:37:21;99516.38;;;7.26;100.00
45403;BME280;47427;51.976;5.326;2022-11-23T01:40:43;99537.28;;;7.28;100.00
45403;BME280;47427;51.976;5.326;2022-11-23T01:44:31;99534.63;;;7.25;100.00
45403;BME280;47427;51.976;5.326;2022-11-23T01:47:54;99520.75;;;7.27;100.00
45403;BME280;47427;51.976;5.326;2022-11-23T01:51:23;99532.13;;;7.31;100.00
45403;BME280;47427;51.976;5.326;2022-11-23T01:54:50;99534.81;;;7.35;100.00
45403;BME280;47427;51.976;5.326;2022-11-23T01:58:19;99541.72;;;7.33;100.00
45403;BME280;47427;51.976;5.326;2022-11-23T02:01:42;99541.53;;;7.23;100.00
45403;BME280;47427;51.976;5.326;2022-11-23T02:05:05;99544.94;;;7.19;100.00
45403;BME280;47427;51.976;5.326;2022-11-23T02:08:27;99544.06;;;7.16;100.00
45403;BME280;47427;51.976;5.326;2022-11-23T02:11:50;99557.75;;;7.53;100.00
45403;BME280;47427;51.976;5.326;2022-11-23T02:15:12;99553.66;;;7.69;100.00
45403;BME280;47427;51.976;5.326;2022-11-23T02:18:40;99558.84;;;7.66;100.00
45403;BME280;47427;51.976;5.326;2022-11-23T02:22:12;99545.81;;;7.68;100.00
45403;BME280;47427;51.976;5.326;2022-11-23T02:29:09;99559.88;;;7.76;100.00
45403;BME280;47427;51.976;5.326;2022-11-23T02:32:33;99558.13;;;7.76;100.00
45403;BME280;47427;51.976;5.326;2022-11-23T02:35:58;99561.50;;;7.68;100.00
45403;BME280;47427;51.976;5.326;2022-11-23T02:39:40;99562.31;;;7.65;100.00
45403;BME280;47427;51.976;5.326;2022-11-23T02:43:04;99563.84;;;7.52;100.00
45403;BME280;47427;51.976;5.326;2022-11-23T02:46:25;99555.72;;;7.37;100.00
45403;BME280;47427;51.976;5.326;2022-11-23T02:49:48;99567.72;;;7.29;100.00
45403;BME280;47427;51.976;5.326;2022-11-23T02:53:10;99569.66;;;7.39;100.00
45403;BME280;47427;51.976;5.326;2022-11-23T02:56:52;99566.50;;;7.55;100.00
45403;BME280;47427;51.976;5.326;2022-11-23T03:00:34;99573.59;;;7.64;100.00
45403;BME280;47427;51.976;5.326;2022-11-23T03:03:56;99563.31;;;7.73;100.00
45403;BME280;47427;51.976;5.326;2022-11-23T03:07:17;99567.75;;;7.79;100.00
45403;BME280;47427;51.976;5.326;2022-11-23T03:10:39;99574.00;;;7.89;100.00
45403;BME280;47427;51.976;5.326;2022-11-23T03:14:01;99576.00;;;8.03;100.00
45403;BME280;47427;51.976;5.326;2022-11-23T03:17:24;99569.81;;;7.98;100.00
45403;BME280;47427;51.976;5.326;2022-11-23T03:20:48;99578.66;;;8.07;100.00
45403;BME280;47427;51.976;5.326;2022-11-23T03:24:11;99572.63;;;8.11;100.00
45403;BME280;47427;51.976;5.326;2022-11-23T03:27:33;99579.44;;;8.02;100.00
45403;BME280;47427;51.976;5.326;2022-11-23T03:30:57;99575.13;;;8.04;100.00
45403;BME280;47427;51.976;5.326;2022-11-23T03:34:21;99564.75;;;8.09;100.00
45403;BME280;47427;51.976;5.326;2022-11-23T03:37:45;99569.19;;;8.13;100.00
45403;BME280;47427;51.976;5.326;2022-11-23T03:41:07;99571.75;;;8.10;100.00
45403;BME280;47427;51.976;5.326;2022-11-23T03:44:44;99569.31;;;8.22;100.00
45403;BME280;47427;51.976;5.326;2022-11-23T03:48:05;99572.66;;;8.14;100.00
45403;BME280;47427;51.976;5.326;2022-11-23T03:51:27;99578.88;;;8.20;100.00
45403;BME280;47427;51.976;5.326;2022-11-23T03:54:49;99574.56;;;8.24;100.00
45403;BME280;47427;51.976;5.326;2022-11-23T03:58:11;99571.09;;;8.23;100.00
45403;BME280;47427;51.976;5.326;2022-11-23T04:01:33;99573.59;;;8.17;100.00
45403;BME280;47427;51.976;5.326;2022-11-23T04:04:59;99563.69;;;7.96;100.00
45403;BME280;47427;51.976;5.326;2022-11-23T04:08:41;99557.34;;;7.80;100.00
45403;BME280;47427;51.976;5.326;2022-11-23T04:12:10;99578.88;;;7.67;100.00
45403;BME280;47427;51.976;5.326;2022-11-23T04:15:32;99576.19;;;7.64;100.00
45403;BME280;47427;51.976;5.326;2022-11-23T04:18:55;99566.66;;;7.65;100.00
45403;BME280;47427;51.976;5.326;2022-11-23T04:22:17;99575.53;;;7.76;100.00
45403;BME280;47427;51.976;5.326;2022-11-23T04:25:38;99579.81;;;7.71;100.00
45403;BME280;47427;51.976;5.326;2022-11-23T04:29:01;99581.63;;;7.75;100.00
45403;BME280;47427;51.976;5.326;2022-11-23T04:32:24;99580.81;;;7.79;100.00
45403;BME280;47427;51.976;5.326;2022-11-23T04:35:45;99579.19;;;7.87;100.00
45403;BME280;47427;51.976;5.326;2022-11-23T04:39:07;99573.13;;;7.88;100.00
45403;BME280;47427;51.976;5.326;2022-11-23T04:42:40;99571.59;;;8.02;100.00
45403;BME280;47427;51.976;5.326;2022-11-23T04:46:02;99567.28;;;8.04;100.00
45403;BME280;47427;51.976;5.326;2022-11-23T04:49:25;99575.84;;;7.94;100.00
45403;BME280;47427;51.976;5.326;2022-11-23T04:52:49;99585.38;;;7.92;100.00
45403;BME280;47427;51.976;5.326;2022-11-23T04:56:15;99576.75;;;7.96;100.00
45403;BME280;47427;51.976;5.326;2022-11-23T04:59:38;99568.00;;;7.93;100.00
45403;BME280;47427;51.976;5.326;2022-11-23T05:03:00;99577.50;;;7.89;100.00
45403;BME280;47427;51.976;5.326;2022-11-23T05:06:25;99570.59;;;7.93;100.00
45403;BME280;47427;51.976;5.326;2022-11-23T05:09:48;99567.91;;;7.90;100.00
45403;BME280;47427;51.976;5.326;2022-11-23T05:13:12;99567.13;;;7.94;100.00
45403;BME280;47427;51.976;5.326;2022-11-23T05:16:54;99570.66;;;7.97;100.00
45403;BME280;47427;51.976;5.326;2022-11-23T05:20:16;99564.72;;;8.06;100.00
45403;BME280;47427;51.976;5.326;2022-11-23T05:23:42;99570.97;;;8.16;100.00
45403;BME280;47427;51.976;5.326;2022-11-23T05:27:04;99576.16;;;8.14;100.00
45403;BME280;47427;51.976;5.326;2022-11-23T05:30:26;99577.91;;;8.14;100.00
45403;BME280;47427;51.976;5.326;2022-11-23T05:33:47;99570.94;;;8.13;100.00
45403;BME280;47427;51.976;5.326;2022-11-23T05:37:13;99577.66;;;7.98;100.00
45403;BME280;47427;51.976;5.326;2022-11-23T05:40:46;99579.72;;;7.66;100.00
45403;BME280;47427;51.976;5.326;2022-11-23T05:44:10;99580.63;;;7.68;100.00
45403;BME280;47427;51.976;5.326;2022-11-23T05:47:33;99582.38;;;7.68;100.00
45403;BME280;47427;51.976;5.326;2022-11-23T05:50:58;99592.00;;;7.72;100.00
45403;BME280;47427;51.976;5.326;2022-11-23T05:54:23;99589.47;;;7.75;100.00
45403;BME280;47427;51.976;5.326;2022-11-23T05:57:56;99597.44;;;7.84;100.00
45403;BME280;47427;51.976;5.326;2022-11-23T06:01:18;99589.63;;;7.86;100.00
45403;BME280;47427;51.976;5.326;2022-11-23T06:04:40;99579.97;;;7.80;100.00
45403;BME280;47427;51.976;5.326;2022-11-23T06:08:05;99585.94;;;7.73;100.00
45403;BME280;47427;51.976;5.326;2022-11-23T06:11:27;99588.06;;;7.47;100.00
45403;BME280;47427;51.976;5.326;2022-11-23T06:14:55;99587.72;;;7.27;100.00
45403;BME280;47427;51.976;5.326;2022-11-23T06:18:19;99584.72;;;7.08;100.00
45403;BME280;47427;51.976;5.326;2022-11-23T06:21:44;99590.59;;;6.97;100.00
45403;BME280;47427;51.976;5.326;2022-11-23T06:25:06;99580.75;;;6.83;100.00
45403;BME280;47427;51.976;5.326;2022-11-23T06:28:34;99584.22;;;6.82;100.00
45403;BME280;47427;51.976;5.326;2022-11-23T06:31:57;99597.03;;;6.73;100.00
45403;BME280;47427;51.976;5.326;2022-11-23T06:35:23;99582.03;;;6.61;100.00
45403;BME280;47427;51.976;5.326;2022-11-23T06:38:44;99581.63;;;6.43;100.00
45403;BME280;47427;51.976;5.326;2022-11-23T06:42:13;99588.28;;;6.30;100.00
45403;BME280;47427;51.976;5.326;2022-11-23T06:45:35;99591.69;;;6.27;100.00
45403;BME280;47427;51.976;5.326;2022-11-23T06:49:00;99599.31;;;6.18;100.00
45403;BME280;47427;51.976;5.326;2022-11-23T06:52:22;99608.69;;;6.12;100.00
45403;BME280;47427;51.976;5.326;2022-11-23T06:55:46;99612.22;;;6.15;100.00
45403;BME280;47427;51.976;5.326;2022-11-23T06:59:11;99612.41;;;6.21;100.00
45403;BME280;47427;51.976;5.326;2022-11-23T07:02:33;99619.72;;;6.38;100.00
45403;BME280;47427;51.976;5.326;2022-11-23T07:06:15;99621.22;;;6.66;100.00
45403;BME280;47427;51.976;5.326;2022-11-23T07:09:37;99618.09;;;6.82;100.00
45403;BME280;47427;51.976;5.326;2022-11-23T07:13:32;99621.00;;;6.96;100.00
45403;BME280;47427;51.976;5.326;2022-11-23T07:16:53;99626.25;;;6.98;100.00
45403;BME280;47427;51.976;5.326;2022-11-23T07:20:15;99630.84;;;7.11;100.00
45403;BME280;47427;51.976;5.326;2022-11-23T07:23:38;99638.22;;;7.30;100.00
45403;BME280;47427;51.976;5.326;2022-11-23T07:27:02;99634.78;;;7.33;100.00
45403;BME280;47427;51.976;5.326;2022-11-23T07:30:26;99652.56;;;7.52;100.00
45403;BME280;47427;51.976;5.326;2022-11-23T07:33:48;99642.91;;;7.48;100.00
45403;BME280;47427;51.976;5.326;2022-11-23T07:37:10;99658.66;;;7.54;100.00
45403;BME280;47427;51.976;5.326;2022-11-23T07:40:37;99651.81;;;7.58;100.00
45403;BME280;47427;51.976;5.326;2022-11-23T07:43:59;99666.53;;;7.56;100.00
45403;BME280;47427;51.976;5.326;2022-11-23T07:47:21;99660.56;;;7.62;100.00
45403;BME280;47427;51.976;5.326;2022-11-23T07:50:42;99664.03;;;7.60;100.00
45403;BME280;47427;51.976;5.326;2022-11-23T07:54:04;99668.44;;;7.63;100.00
45403;BME280;47427;51.976;5.326;2022-11-23T07:57:26;99686.91;;;7.74;100.00
45403;BME280;47427;51.976;5.326;2022-11-23T08:00:48;99685.19;;;7.76;100.00
45403;BME280;47427;51.976;5.326;2022-11-23T08:04:09;99687.91;;;7.82;100.00
45403;BME280;47427;51.976;5.326;2022-11-23T08:07:31;99688.69;;;7.76;100.00
45403;BME280;47427;51.976;5.326;2022-11-23T08:10:52;99692.31;;;7.85;100.00
45403;BME280;47427;51.976;5.326;2022-11-23T08:14:14;99701.88;;;7.84;100.00
45403;BME280;47427;51.976;5.326;2022-11-23T08:17:36;99680.31;;;7.94;100.00
45403;BME280;47427;51.976;5.326;2022-11-23T08:20:59;99684.34;;;7.77;100.00
45403;BME280;47427;51.976;5.326;2022-11-23T08:24:21;99685.56;;;7.96;100.00
45403;BME280;47427;51.976;5.326;2022-11-23T08:27:42;99694.19;;;7.92;100.00
45403;BME280;47427;51.976;5.326;2022-11-23T08:31:08;99694.13;;;7.89;100.00
45403;BME280;47427;51.976;5.326;2022-11-23T08:34:31;99697.03;;;8.04;100.00
45403;BME280;47427;51.976;5.326;2022-11-23T08:37:53;99691.28;;;8.25;99.76
45403;BME280;47427;51.976;5.326;2022-11-23T08:41:14;99678.28;;;8.28;98.74
45403;BME280;47427;51.976;5.326;2022-11-23T08:44:38;99689.94;;;8.47;97.66
45403;BME280;47427;51.976;5.326;2022-11-23T08:48:01;99690.06;;;8.55;96.58
45403;BME280;47427;51.976;5.326;2022-11-23T08:51:23;99688.88;;;8.92;95.46
45403;BME280;47427;51.976;5.326;2022-11-23T08:54:45;99691.22;;;9.38;92.77
45403;BME280;47427;51.976;5.326;2022-11-23T08:58:06;99683.59;;;9.54;90.84
45403;BME280;47427;51.976;5.326;2022-11-23T09:01:29;99675.88;;;9.68;89.61
45403;BME280;47427;51.976;5.326;2022-11-23T09:04:50;99683.31;;;9.33;89.75
45403;BME280;47427;51.976;5.326;2022-11-23T09:08:12;99687.94;;;9.55;89.42
45403;BME280;47427;51.976;5.326;2022-11-23T09:11:35;99678.28;;;10.37;86.16
45403;BME280;47427;51.976;5.326;2022-11-23T09:14:57;99684.28;;;11.84;78.44
45403;BME280;47427;51.976;5.326;2022-11-23T09:18:18;99665.13;;;12.56;74.22
45403;BME280;47427;51.976;5.326;2022-11-23T09:22:00;99680.66;;;13.57;71.72
45403;BME280;47427;51.976;5.326;2022-11-23T09:25:48;99664.47;;;15.14;65.38
45403;BME280;47427;51.976;5.326;2022-11-23T09:29:10;99663.50;;;15.18;60.39
45403;BME280;47427;51.976;5.326;2022-11-23T09:32:54;99663.03;;;15.57;59.41
45403;BME280;47427;51.976;5.326;2022-11-23T09:36:15;99672.66;;;16.24;57.34
45403;BME280;47427;51.976;5.326;2022-11-23T09:39:37;99650.31;;;16.44;56.24
45403;BME280;47427;51.976;5.326;2022-11-23T09:51:17;99647.72;;;17.34;52.78
45403;BME280;47427;51.976;5.326;2022-11-23T09:54:39;99637.19;;;16.86;52.55
45403;BME280;47427;51.976;5.326;2022-11-23T09:58:05;99616.19;;;19.05;48.12
45403;BME280;47427;51.976;5.326;2022-11-23T10:01:27;99611.00;;;18.34;47.82
45403;BME280;47427;51.976;5.326;2022-11-23T10:04:51;99598.50;;;19.34;46.56
45403;BME280;47427;51.976;5.326;2022-11-23T10:15:44;99586.41;;;19.82;44.69
45403;BME280;47427;51.976;5.326;2022-11-23T10:23:38;99583.38;;;19.36;44.33
45403;BME280;47427;51.976;5.326;2022-11-23T10:27:15;99594.84;;;17.29;47.79
45403;BME280;47427;51.976;5.326;2022-11-23T10:30:37;99601.03;;;15.14;54.71
45403;BME280;47427;51.976;5.326;2022-11-23T10:34:12;99615.81;;;13.15;60.40
45403;BME280;47427;51.976;5.326;2022-11-23T10:37:34;99599.38;;;12.13;65.27
45403;BME280;47427;51.976;5.326;2022-11-23T10:41:15;99613.22;;;11.26;68.84
45403;BME280;47427;51.976;5.326;2022-11-23T10:44:38;99617.31;;;10.67;71.99
45403;BME280;47427;51.976;5.326;2022-11-23T10:48:04;99610.00;;;10.23;74.30
45403;BME280;47427;51.976;5.326;2022-11-23T10:51:31;99609.03;;;10.10;75.50
45403;BME280;47427;51.976;5.326;2022-11-23T10:54:57;99604.19;;;10.66;74.43
45403;BME280;47427;51.976;5.326;2022-11-23T10:58:40;99600.00;;;11.00;72.42
45403;BME280;47427;51.976;5.326;2022-11-23T11:02:18;99613.94;;;10.91;72.17
45403;BME280;47427;51.976;5.326;2022-11-23T11:05:49;99599.13;;;10.96;72.62
45403;BME280;47427;51.976;5.326;2022-11-23T11:09:19;99593.03;;;11.16;72.20
45403;BME280;47427;51.976;5.326;2022-11-23T11:12:50;99595.59;;;10.97;73.14
45403;BME280;47427;51.976;5.326;2022-11-23T11:16:24;99603.44;;;10.91;73.56
45403;BME280;47427;51.976;5.326;2022-11-23T11:19:46;99588.59;;;10.92;72.73
45403;BME280;47427;51.976;5.326;2022-11-23T11:23:20;99604.28;;;10.84;73.03
45403;BME280;47427;51.976;5.326;2022-11-23T11:27:13;99590.38;;;11.05;72.59
45403;BME280;47427;51.976;5.326;2022-11-23T11:30:49;99587.00;;;11.49;70.69
45403;BME280;47427;51.976;5.326;2022-11-23T11:38:27;99580.78;;;11.16;71.72
45403;BME280;47427;51.976;5.326;2022-11-23T11:41:52;99554.56;;;11.32;71.68
45403;BME280;47427;51.976;5.326;2022-11-23T11:48:51;99537.91;;;11.08;72.60
45403;BME280;47427;51.976;5.326;2022-11-23T11:52:20;99542.22;;;10.95;72.21
45403;BME280;47427;51.976;5.326;2022-11-23T11:56:00;99529.25;;;11.47;71.36
45403;BME280;47427;51.976;5.326;2022-11-23T12:06:50;99513.22;;;14.17;62.39
45403;BME280;47427;51.976;5.326;2022-11-23T12:13:58;99509.72;;;16.11;54.63
45403;BME280;47427;51.976;5.326;2022-11-23T12:17:52;99508.69;;;16.63;53.51
45403;BME280;47427;51.976;5.326;2022-11-23T12:25:36;99501.19;;;14.74;56.87
45403;BME280;47427;51.976;5.326;2022-11-23T12:36:08;99502.56;;;15.03;56.52
45403;BME280;47427;51.976;5.326;2022-11-23T12:39:55;99493.50;;;14.55;58.32
45403;BME280;47427;51.976;5.326;2022-11-23T12:58:31;99481.94;;;12.07;66.96
45403;BME280;47427;51.976;5.326;2022-11-23T13:02:00;99475.81;;;11.67;69.11
45403;BME280;47427;51.976;5.326;2022-11-23T13:12:58;99472.31;;;11.22;71.88
45403;BME280;47427;51.976;5.326;2022-11-23T13:16:51;99467.88;;;11.01;72.47
45403;BME280;47427;51.976;5.326;2022-11-23T13:24:34;99468.63;;;10.55;74.83
45403;BME280;47427;51.976;5.326;2022-11-23T13:28:25;99475.59;;;10.52;74.97
45403;BME280;47427;51.976;5.326;2022-11-23T13:31:47;99491.34;;;10.55;74.84
45403;BME280;47427;51.976;5.326;2022-11-23T13:38:41;99509.63;;;10.36;75.41
45403;BME280;47427;51.976;5.326;2022-11-23T13:42:04;99528.84;;;10.34;76.78
45403;BME280;47427;51.976;5.326;2022-11-23T13:45:32;99539.41;;;9.38;84.74
45403;BME280;47427;51.976;5.326;2022-11-23T13:48:56;99535.44;;;8.96;90.19
45403;BME280;47427;51.976;5.326;2022-11-23T13:55:41;99531.41;;;8.51;98.33
45403;BME280;47427;51.976;5.326;2022-11-23T14:02:43;99527.09;;;7.93;100.00
45403;BME280;47427;51.976;5.326;2022-11-23T14:10:02;99538.38;;;7.91;100.00
45403;BME280;47427;51.976;5.326;2022-11-23T14:13:31;99536.50;;;7.84;100.00
45403;BME280;47427;51.976;5.326;2022-11-23T14:21:12;99543.16;;;7.65;100.00
45403;BME280;47427;51.976;5.326;2022-11-23T14:32:50;99558.13;;;7.75;100.00
45403;BME280;47427;51.976;5.326;2022-11-23T14:40:46;99568.44;;;7.67;100.00
45403;BME280;47427;51.976;5.326;2022-11-23T14:44:13;99580.44;;;7.57;100.00
45403;BME280;47427;51.976;5.326;2022-11-23T14:47:35;99578.75;;;7.61;100.00
45403;BME280;47427;51.976;5.326;2022-11-23T14:51:04;99573.63;;;7.66;100.00
45403;BME280;47427;51.976;5.326;2022-11-23T14:54:27;99574.19;;;7.49;100.00
45403;BME280;47427;51.976;5.326;2022-11-23T14:57:56;99571.66;;;7.54;100.00
45403;BME280;47427;51.976;5.326;2022-11-23T15:01:21;99576.09;;;7.58;100.00
45403;BME280;47427;51.976;5.326;2022-11-23T15:05:04;99566.38;;;7.49;100.00
45403;BME280;47427;51.976;5.326;2022-11-23T15:08:42;99577.81;;;7.56;100.00
45403;BME280;47427;51.976;5.326;2022-11-23T15:12:41;99575.19;;;7.56;100.00
45403;BME280;47427;51.976;5.326;2022-11-23T15:16:03;99586.47;;;7.53;100.00
45403;BME280;47427;51.976;5.326;2022-11-23T15:19:28;99579.34;;;7.45;100.00
45403;BME280;47427;51.976;5.326;2022-11-23T15:22:50;99591.44;;;7.41;100.00
45403;BME280;47427;51.976;5.326;2022-11-23T15:26:19;99603.63;;;7.41;100.00
45403;BME280;47427;51.976;5.326;2022-11-23T15:29:56;99589.56;;;7.32;100.00
45403;BME280;47427;51.976;5.326;2022-11-23T15:33:52;99592.34;;;7.43;100.00
45403;BME280;47427;51.976;5.326;2022-11-23T15:37:16;99595.00;;;7.45;100.00
45403;BME280;47427;51.976;5.326;2022-11-23T15:40:42;99592.22;;;7.35;100.00
45403;BME280;47427;51.976;5.326;2022-11-23T15:44:16;99603.66;;;7.44;100.00
45403;BME280;47427;51.976;5.326;2022-11-23T15:47:41;99608.88;;;7.42;100.00
45403;BME280;47427;51.976;5.326;2022-11-23T15:51:07;99619.34;;;7.44;100.00
45403;BME280;47427;51.976;5.326;2022-11-23T15:54:40;99630.78;;;7.52;100.00
45403;BME280;47427;51.976;5.326;2022-11-23T15:58:02;99615.06;;;7.47;100.00
45403;BME280;47427;51.976;5.326;2022-11-23T16:01:27;99629.94;;;7.53;100.00
45403;BME280;47427;51.976;5.326;2022-11-23T16:08:39;99632.56;;;7.53;100.00
45403;BME280;47427;51.976;5.326;2022-11-23T16:12:03;99641.22;;;7.52;100.00
45403;BME280;47427;51.976;5.326;2022-11-23T16:15:40;99637.53;;;7.41;100.00
45403;BME280;47427;51.976;5.326;2022-11-23T16:19:01;99648.16;;;7.50;100.00
45403;BME280;47427;51.976;5.326;2022-11-23T16:22:33;99656.00;;;7.51;100.00
45403;BME280;47427;51.976;5.326;2022-11-23T16:26:00;99668.38;;;7.60;100.00
45403;BME280;47427;51.976;5.326;2022-11-23T16:29:32;99665.84;;;7.65;100.00
45403;BME280;47427;51.976;5.326;2022-11-23T16:32:57;99670.84;;;7.54;100.00
45403;BME280;47427;51.976;5.326;2022-11-23T16:36:19;99672.94;;;7.72;100.00
45403;BME280;47427;51.976;5.326;2022-11-23T16:39:40;99680.94;;;7.81;100.00
45403;BME280;47427;51.976;5.326;2022-11-23T16:43:02;99682.69;;;7.82;100.00
45403;BME280;47427;51.976;5.326;2022-11-23T16:46:24;99683.34;;;7.70;100.00
45403;BME280;47427;51.976;5.326;2022-11-23T16:49:48;99679.06;;;7.74;100.00
45403;BME280;47427;51.976;5.326;2022-11-23T16:53:13;99684.41;;;7.80;100.00
45403;BME280;47427;51.976;5.326;2022-11-23T16:56:36;99682.91;;;7.93;100.00
45403;BME280;47427;51.976;5.326;2022-11-23T17:00:02;99704.00;;;8.03;100.00
45403;BME280;47427;51.976;5.326;2022-11-23T17:03:24;99704.16;;;8.13;100.00
45403;BME280;47427;51.976;5.326;2022-11-23T17:06:46;99703.25;;;8.11;100.00
45403;BME280;47427;51.976;5.326;2022-11-23T17:10:09;99708.47;;;8.12;100.00
45403;BME280;47427;51.976;5.326;2022-11-23T17:13:31;99712.00;;;8.13;100.00
45403;BME280;47427;51.976;5.326;2022-11-23T17:16:53;99711.78;;;8.00;100.00
45403;BME280;47427;51.976;5.326;2022-11-23T17:20:35;99725.72;;;8.02;100.00
45403;BME280;47427;51.976;5.326;2022-11-23T17:23:56;99727.41;;;7.99;100.00
45403;BME280;47427;51.976;5.326;2022-11-23T17:27:23;99720.47;;;8.01;100.00
45403;BME280;47427;51.976;5.326;2022-11-23T17:30:45;99739.59;;;8.00;100.00
45403;BME280;47427;51.976;5.326;2022-11-23T17:34:08;99750.88;;;7.96;100.00
45403;BME280;47427;51.976;5.326;2022-11-23T17:37:29;99747.28;;;7.92;100.00
45403;BME280;47427;51.976;5.326;2022-11-23T17:40:51;99753.53;;;7.99;100.00
45403;BME280;47427;51.976;5.326;2022-11-23T17:44:14;99749.84;;;7.88;100.00
45403;BME280;47427;51.976;5.326;2022-11-23T17:47:36;99772.44;;;7.87;100.00
45403;BME280;47427;51.976;5.326;2022-11-23T17:50:58;99771.47;;;7.80;100.00
45403;BME280;47427;51.976;5.326;2022-11-23T17:54:21;99775.75;;;7.78;100.00
45403;BME280;47427;51.976;5.326;2022-11-23T17:57:43;99770.63;;;7.83;100.00
45403;BME280;47427;51.976;5.326;2022-11-23T18:01:09;99777.31;;;7.69;100.00
45403;BME280;47427;51.976;5.326;2022-11-23T18:04:32;99784.06;;;7.59;100.00
45403;BME280;47427;51.976;5.326;2022-11-23T18:07:53;99792.66;;;7.53;100.00
45403;BME280;47427;51.976;5.326;2022-11-23T18:11:16;99794.22;;;7.47;100.00
45403;BME280;47427;51.976;5.326;2022-11-23T18:14:37;99805.59;;;7.47;100.00
45403;BME280;47427;51.976;5.326;2022-11-23T18:17:59;99812.50;;;7.47;100.00
45403;BME280;47427;51.976;5.326;2022-11-23T18:21:21;99818.47;;;7.41;100.00
45403;BME280;47427;51.976;5.326;2022-11-23T18:24:42;99815.75;;;7.36;100.00
45403;BME280;47427;51.976;5.326;2022-11-23T18:28:04;99832.16;;;7.31;100.00
45403;BME280;47427;51.976;5.326;2022-11-23T18:31:25;99816.44;;;7.28;100.00
45403;BME280;47427;51.976;5.326;2022-11-23T18:34:47;99832.88;;;7.24;100.00
45403;BME280;47427;51.976;5.326;2022-11-23T18:38:12;99837.13;;;7.20;100.00
45403;BME280;47427;51.976;5.326;2022-11-23T18:41:34;99839.44;;;7.08;100.00
45403;BME280;47427;51.976;5.326;2022-11-23T18:44:55;99844.47;;;7.00;100.00
45403;BME280;47427;51.976;5.326;2022-11-23T18:48:38;99842.81;;;7.04;100.00
45403;BME280;47427;51.976;5.326;2022-11-23T18:51:59;99846.06;;;6.93;100.00
45403;BME280;47427;51.976;5.326;2022-11-23T18:55:21;99853.69;;;6.86;100.00
45403;BME280;47427;51.976;5.326;2022-11-23T18:58:44;99854.50;;;6.83;100.00
45403;BME280;47427;51.976;5.326;2022-11-23T19:02:09;99856.28;;;6.84;100.00
45403;BME280;47427;51.976;5.326;2022-11-23T19:05:33;99857.00;;;6.79;100.00
45403;BME280;47427;51.976;5.326;2022-11-23T19:08:56;99870.03;;;6.79;100.00
45403;BME280;47427;51.976;5.326;2022-11-23T19:12:17;99873.34;;;6.73;100.00
45403;BME280;47427;51.976;5.326;2022-11-23T19:15:39;99872.34;;;6.68;100.00
45403;BME280;47427;51.976;5.326;2022-11-23T19:19:04;99881.16;;;6.71;100.00
45403;BME280;47427;51.976;5.326;2022-11-23T19:22:27;99887.06;;;6.66;100.00
45403;BME280;47427;51.976;5.326;2022-11-23T19:25:48;99885.09;;;6.57;100.00
45403;BME280;47427;51.976;5.326;2022-11-23T19:29:10;99889.47;;;6.58;100.00
45403;BME280;47427;51.976;5.326;2022-11-23T19:32:34;99892.91;;;6.57;100.00
45403;BME280;47427;51.976;5.326;2022-11-23T19:35:56;99901.53;;;6.55;100.00
45403;BME280;47427;51.976;5.326;2022-11-23T19:39:24;99902.53;;;6.60;100.00
45403;BME280;47427;51.976;5.326;2022-11-23T19:42:45;99903.41;;;6.60;100.00
45403;BME280;47427;51.976;5.326;2022-11-23T19:46:10;99907.59;;;6.54;100.00
45403;BME280;47427;51.976;5.326;2022-11-23T19:49:32;99904.16;;;6.55;100.00
45403;BME280;47427;51.976;5.326;2022-11-23T19:52:54;99909.16;;;6.47;100.00
45403;BME280;47427;51.976;5.326;2022-11-23T19:56:23;99918.97;;;6.57;100.00
45403;BME280;47427;51.976;5.326;2022-11-23T19:59:46;99921.44;;;6.51;100.00
45403;BME280;47427;51.976;5.326;2022-11-23T20:03:09;99924.03;;;6.51;100.00
45403;BME280;47427;51.976;5.326;2022-11-23T20:06:32;99938.09;;;6.58;100.00